Time;durP1;ratioP1;P1;durP2;ratioP2;P2;SDS_P1;SDS_P2;PMS_P1;PMS_P2;Temp;Humidity;BMP_temperature;BMP_pressure;BME280_temperature;BME280_humidity;BME280_pressure;Samples;Min_cycle;Max_cycle;Signal;HPM_P1;HPM_P2
2023/11/16 00:01:28;;;;;;;7.15;1.17;;;8.90;99.90;;;;;;7400658;19;20084;-74
2023/11/16 00:07:50;;;;;;;8.38;1.33;;;8.90;99.90;;;;;;7400200;19;20063;-72
2023/11/16 00:10:34;;;;;;;8.13;1.08;;;8.80;99.90;;;;;;7398816;19;20003;-74
2023/11/16 00:13:11;;;;;;;6.78;1.38;;;8.80;99.90;;;;;;7399910;19;20003;-73
2023/11/16 00:19:42;;;;;;;9.20;2.08;;;8.90;99.90;;;;;;7399648;19;20010;-75
2023/11/16 00:22:09;;;;;;;12.45;2.53;;;8.90;99.90;;;;;;7398244;19;20529;-74
2023/11/16 00:24:46;;;;;;;7.07;1.17;;;8.80;99.90;;;;;;7397773;19;20014;-74
2023/11/16 00:27:26;;;;;;;7.20;1.52;;;8.70;99.90;;;;;;7398008;19;20011;-74
2023/11/16 00:29:56;;;;;;;6.03;1.30;;;8.70;99.90;;;;;;7397784;19;20078;-74
2023/11/16 00:32:56;;;;;;;11.57;2.42;;;8.70;99.90;;;;;;7399479;19;20039;-75
2023/11/16 00:35:40;;;;;;;9.88;1.42;;;8.70;99.90;;;;;;7402460;19;20015;-73
2023/11/16 00:38:25;;;;;;;5.45;0.90;;;8.60;99.90;;;;;;7397216;19;20011;-73
2023/11/16 00:40:56;;;;;;;4.90;1.00;;;8.60;99.90;;;;;;7397358;19;20011;-73
2023/11/16 00:43:31;;;;;;;7.78;1.38;;;8.60;99.90;;;;;;7397412;19;20010;-73
2023/11/16 00:46:24;;;;;;;6.93;1.42;;;8.60;99.90;;;;;;7397373;19;20039;-73
2023/11/16 00:52:21;;;;;;;14.65;1.95;;;8.70;99.90;;;;;;7397030;19;20044;-73
2023/11/16 01:10:45;;;;;;;7.85;1.10;;;8.90;99.90;;;;;;7402217;19;20417;-73
2023/11/16 01:13:12;;;;;;;10.68;1.42;;;8.80;99.90;;;;;;7396766;19;20025;-72
2023/11/16 01:15:44;;;;;;;7.07;1.50;;;8.70;99.90;;;;;;7400155;19;20487;-73
2023/11/16 01:25:51;;;;;;;7.18;1.30;;;8.70;99.90;;;;;;7397383;19;20001;-73
2023/11/16 01:28:31;;;;;;;7.85;1.55;;;8.70;99.90;;;;;;7397259;19;20454;-73
2023/11/16 01:34:52;;;;;;;10.77;1.50;;;8.70;99.90;;;;;;7397859;19;20026;-74
2023/11/16 01:41:14;;;;;;;12.00;1.90;;;8.60;99.90;;;;;;7396999;19;20074;-73
2023/11/16 01:44:09;;;;;;;9.63;1.25;;;8.60;99.90;;;;;;7395389;19;20339;-73
2023/11/16 01:46:50;;;;;;;8.40;1.60;;;8.60;99.90;;;;;;7397551;19;20014;-74
2023/11/16 01:49:30;;;;;;;7.22;1.65;;;8.70;99.90;;;;;;7395645;19;20018;-74
2023/11/16 01:52:21;;;;;;;5.53;0.93;;;8.70;99.90;;;;;;7393954;19;20034;-74
2023/11/16 01:54:48;;;;;;;8.52;1.63;;;8.70;99.90;;;;;;7394983;19;20774;-74
2023/11/16 02:00:36;;;;;;;8.20;1.60;;;8.70;99.90;;;;;;7400501;19;20074;-74
2023/11/16 02:03:16;;;;;;;8.77;2.17;;;8.70;99.90;;;;;;7394856;19;20018;-74
2023/11/16 02:05:47;;;;;;;6.10;1.33;;;8.60;99.90;;;;;;7398010;19;20011;-74
2023/11/16 02:12:33;;;;;;;7.50;1.13;;;8.50;99.90;;;;;;7394671;19;20059;-73
2023/11/16 02:15:11;;;;;;;10.38;1.60;;;8.40;99.90;;;;;;7394482;19;20070;-72
2023/11/16 02:18:13;;;;;;;13.25;1.58;;;8.30;99.90;;;;;;7393405;19;20082;-73
2023/11/16 02:21:06;;;;;;;;;;;8.20;99.90;;;;;;7395798;19;20031;-73
2023/11/16 02:24:10;;;;;;;8.65;1.48;;;8.10;99.90;;;;;;7394290;19;20240;-72
2023/11/16 02:27:09;;;;;;;8.75;1.52;;;8.00;99.90;;;;;;7393955;19;20358;-72
2023/11/16 02:29:45;;;;;;;9.63;1.92;;;8.00;99.90;;;;;;7399121;19;20010;-72
2023/11/16 02:32:29;;;;;;;9.45;1.05;;;8.00;99.90;;;;;;7401391;19;20018;-72
2023/11/16 02:35:27;;;;;;;6.63;1.30;;;7.90;99.90;;;;;;7401254;19;20035;-72
2023/11/16 02:41:39;;;;;;;6.82;1.58;;;7.80;99.90;;;;;;7403109;19;20018;-73
2023/11/16 02:44:33;;;;;;;7.43;1.27;;;7.70;99.90;;;;;;7403412;19;20006;-74
2023/11/16 02:47:07;;;;;;;8.88;1.92;;;7.70;99.90;;;;;;7401145;19;20007;-72
2023/11/16 02:49:33;;;;;;;10.60;1.30;;;7.70;99.90;;;;;;7401020;19;20039;-72
2023/11/16 02:52:16;;;;;;;8.13;0.98;;;7.60;99.90;;;;;;7398517;19;20031;-72
2023/11/16 02:58:08;;;;;;;7.30;1.00;;;7.50;99.90;;;;;;7401141;19;20026;-73
2023/11/16 03:04:47;;;;;;;7.55;1.50;;;7.40;99.90;;;;;;7405386;19;20007;-71
2023/11/16 03:07:53;;;;;;;13.20;1.20;;;7.30;99.90;;;;;;7401107;19;20010;-72
2023/11/16 03:10:57;;;;;;;7.57;1.17;;;7.30;99.90;;;;;;7403521;19;20533;-71
2023/11/16 03:13:23;;;;;;;7.50;1.42;;;7.30;99.90;;;;;;7400089;19;20094;-71
2023/11/16 03:19:12;;;;;;;8.00;1.42;;;7.10;99.90;;;;;;7401475;19;20034;-71
2023/11/16 03:21:54;;;;;;;8.00;0.90;;;7.10;99.90;;;;;;7399572;19;20028;-72
2023/11/16 03:24:21;;;;;;;6.25;1.38;;;6.90;99.90;;;;;;7399936;19;20020;-72
2023/11/16 03:26:49;;;;;;;8.80;1.42;;;6.90;99.90;;;;;;7398984;19;20093;-71
2023/11/16 03:29:16;;;;;;;8.27;1.40;;;6.80;99.90;;;;;;7401564;19;20015;-73
2023/11/16 03:32:02;;;;;;;10.52;1.35;;;6.80;99.90;;;;;;7397560;19;20710;-72
2023/11/16 03:34:32;;;;;;;7.55;1.35;;;6.80;99.90;;;;;;7399825;19;20011;-73
2023/11/16 03:37:09;;;;;;;5.63;1.23;;;6.70;99.90;;;;;;7399559;19;20405;-73
2023/11/16 03:43:40;;;;;;;7.40;1.45;;;6.70;99.90;;;;;;7405528;19;19998;-73
2023/11/16 03:46:08;;;;;;;10.23;1.20;;;6.60;99.90;;;;;;7398864;19;20091;-71
2023/11/16 03:48:35;;;;;;;8.65;1.52;;;6.60;99.90;;;;;;7398759;19;20006;-71
2023/11/16 03:51:04;;;;;;;8.10;1.20;;;6.60;99.90;;;;;;7398847;19;20106;-71
2023/11/16 03:53:33;;;;;;;11.85;1.48;;;6.60;99.90;;;;;;7398229;19;20006;-71
2023/11/16 03:56:04;;;;;;;12.20;1.52;;;6.50;99.90;;;;;;7399390;19;20017;-72
2023/11/16 03:58:36;;;;;;;11.43;1.10;;;6.40;99.90;;;;;;7398485;19;20014;-72
2023/11/16 04:01:10;;;;;;;7.65;1.10;;;6.40;99.90;;;;;;7398994;19;20295;-71
2023/11/16 04:03:36;;;;;;;9.85;1.23;;;6.40;99.90;;;;;;7399507;19;20316;-72
2023/11/16 04:06:19;;;;;;;17.15;2.38;;;6.40;99.90;;;;;;7398715;19;20010;-71
2023/11/16 04:08:46;;;;;;;6.53;1.33;;;6.30;99.90;;;;;;7399595;19;20422;-71
2023/11/16 04:11:41;;;;;;;5.10;1.25;;;6.30;99.90;;;;;;7397239;19;20017;-72
2023/11/16 04:14:16;;;;;;;9.13;1.67;;;6.30;99.90;;;;;;7402309;19;20011;-71
2023/11/16 04:19:52;;;;;;;9.27;1.40;;;6.10;99.90;;;;;;7402231;19;20034;-73
2023/11/16 04:22:21;;;;;;;9.20;1.60;;;6.10;99.90;;;;;;7399502;19;20007;-72
2023/11/16 04:24:52;;;;;;;8.55;1.33;;;6.00;99.90;;;;;;7398399;19;20011;-73
2023/11/16 04:27:20;;;;;;;11.63;1.30;;;6.00;99.90;;;;;;7395419;19;20928;-73
2023/11/16 04:29:48;;;;;;;5.45;1.30;;;5.90;99.90;;;;;;7392299;19;20512;-72
2023/11/16 04:32:15;;;;;;;9.93;1.42;;;5.90;99.90;;;;;;7390039;19;20015;-73
2023/11/16 04:34:42;;;;;;;10.82;1.55;;;6.00;99.90;;;;;;7387580;19;20007;-73
2023/11/16 04:37:09;;;;;;;8.73;1.40;;;5.90;99.90;;;;;;7390970;19;20015;-74
2023/11/16 04:39:35;;;;;;;7.35;1.30;;;6.00;99.90;;;;;;7387465;19;20772;-73
2023/11/16 04:42:01;;;;;;;7.28;1.77;;;5.90;99.90;;;;;;7389183;19;20038;-73
2023/11/16 04:44:27;;;;;;;5.85;1.58;;;5.90;99.90;;;;;;7388235;19;20018;-73
2023/11/16 04:46:53;;;;;;;7.07;1.70;;;5.90;99.90;;;;;;7387096;19;20198;-73
2023/11/16 04:49:20;;;;;;;8.80;1.10;;;5.90;99.90;;;;;;7386697;19;20033;-73
2023/11/16 04:51:49;;;;;;;8.05;1.05;;;5.80;99.90;;;;;;7383492;19;20035;-74
2023/11/16 04:54:18;;;;;;;5.90;1.40;;;5.70;99.90;;;;;;7387456;19;20022;-73
2023/11/16 04:56:45;;;;;;;8.15;1.35;;;5.70;99.90;;;;;;7385015;19;20026;-73
2023/11/16 04:59:14;;;;;;;6.45;1.23;;;5.70;99.90;;;;;;7387838;19;20074;-73
2023/11/16 05:01:42;;;;;;;6.38;1.50;;;5.60;99.90;;;;;;7389025;19;20043;-72
2023/11/16 05:04:08;;;;;;;8.95;1.27;;;5.50;99.90;;;;;;7390849;19;20014;-73
2023/11/16 05:06:40;;;;;;;6.47;1.10;;;5.50;99.90;;;;;;7388649;19;20355;-72
2023/11/16 05:09:06;;;;;;;12.55;1.60;;;5.40;99.90;;;;;;7391793;19;20017;-73
2023/11/16 05:11:33;;;;;;;7.90;1.40;;;5.30;99.90;;;;;;7387587;19;20353;-73
2023/11/16 05:13:59;;;;;;;7.20;1.42;;;5.30;99.90;;;;;;7387630;19;20052;-73
2023/11/16 05:16:26;;;;;;;8.82;1.27;;;5.30;99.90;;;;;;7386881;19;20018;-73
2023/11/16 05:19:11;;;;;;;3.78;1.15;;;5.30;99.90;;;;;;7387877;19;20014;-74
2023/11/16 05:21:39;;;;;;;12.68;1.40;;;5.30;99.90;;;;;;7397606;19;20023;-74
2023/11/16 05:24:07;;;;;;;8.05;1.35;;;5.20;99.90;;;;;;7397429;19;20036;-74
2023/11/16 05:26:36;;;;;;;6.32;1.48;;;5.10;99.90;;;;;;7393791;19;20011;-74
2023/11/16 05:29:02;;;;;;;7.07;1.30;;;5.10;99.90;;;;;;7396923;19;20010;-73
2023/11/16 05:31:32;;;;;;;9.05;2.00;;;5.10;99.90;;;;;;7393945;19;20011;-73
2023/11/16 05:33:59;;;;;;;6.40;1.58;;;5.00;99.90;;;;;;7396902;19;20049;-72
2023/11/16 05:36:29;;;;;;;6.90;1.30;;;5.00;99.90;;;;;;7384903;19;20034;-73
2023/11/16 05:38:59;;;;;;;11.38;1.77;;;5.00;99.90;;;;;;7392406;19;20078;-73
2023/11/16 05:41:27;;;;;;;8.63;1.90;;;5.00;99.90;;;;;;7397859;19;20014;-73
2023/11/16 05:43:54;;;;;;;9.43;2.33;;;4.90;99.90;;;;;;7394986;19;20469;-73
2023/11/16 05:46:21;;;;;;;7.55;1.90;;;4.90;99.90;;;;;;7393971;19;20019;-74
2023/11/16 05:48:50;;;;;;;7.85;1.55;;;4.90;99.90;;;;;;7394068;19;20020;-73
2023/11/16 05:51:17;;;;;;;7.10;1.40;;;4.90;99.90;;;;;;7393568;19;20007;-74
2023/11/16 05:53:45;;;;;;;6.75;1.70;;;4.90;99.90;;;;;;7387181;19;20502;-72
2023/11/16 05:56:12;;;;;;;8.98;1.35;;;4.90;99.90;;;;;;7384435;19;20454;-72
2023/11/16 05:58:39;;;;;;;8.30;1.52;;;4.80;99.90;;;;;;7384885;19;21001;-72
2023/11/16 06:01:05;;;;;;;8.90;1.65;;;4.80;99.90;;;;;;7384363;19;20018;-73
2023/11/16 06:03:32;;;;;;;8.60;1.55;;;4.70;99.90;;;;;;7379166;19;20014;-72
2023/11/16 06:05:58;;;;;;;4.85;1.35;;;4.70;99.90;;;;;;7384245;19;20042;-73
2023/11/16 06:08:25;;;;;;;4.03;1.10;;;4.60;99.90;;;;;;7384143;19;20492;-72
2023/11/16 06:10:51;;;;;;;5.32;1.20;;;4.60;99.90;;;;;;7386203;19;20018;-72
2023/11/16 06:13:22;;;;;;;4.20;1.20;;;4.50;99.90;;;;;;7386739;19;20023;-72
2023/11/16 06:15:49;;;;;;;5.32;1.20;;;4.50;99.90;;;;;;7385552;19;20087;-71
2023/11/16 06:18:16;;;;;;;5.68;1.20;;;4.40;99.90;;;;;;7385983;19;20014;-60
2023/11/16 06:20:44;;;;;;;7.07;1.83;;;4.30;99.90;;;;;;7385526;19;20773;-74
2023/11/16 06:23:12;;;;;;;6.60;1.95;;;4.40;99.90;;;;;;7396072;19;20099;-72
2023/11/16 06:25:38;;;;;;;6.40;1.40;;;4.30;99.90;;;;;;7398236;19;20031;-72
2023/11/16 06:28:05;;;;;;;5.97;1.27;;;4.20;99.90;;;;;;7386488;19;20022;-74
2023/11/16 06:30:31;;;;;;;6.45;1.40;;;4.20;99.90;;;;;;7379291;19;20022;-74
2023/11/16 06:32:57;;;;;;;6.78;1.50;;;4.10;99.90;;;;;;7388844;19;20019;-76
2023/11/16 06:35:23;;;;;;;10.85;1.65;;;4.10;99.90;;;;;;7383805;19;20114;-74
2023/11/16 06:37:49;;;;;;;5.03;1.42;;;4.10;99.90;;;;;;7387181;19;20018;-73
2023/11/16 06:40:16;;;;;;;7.20;1.77;;;4.10;99.90;;;;;;7388169;19;20018;-73
2023/11/16 06:42:42;;;;;;;3.40;1.17;;;4.00;99.90;;;;;;7387591;19;20579;-73
2023/11/16 06:45:11;;;;;;;5.45;1.58;;;4.00;99.90;;;;;;7386543;19;20022;-73
2023/11/16 06:47:37;;;;;;;4.10;1.50;;;3.90;99.90;;;;;;7382024;19;21216;-74
2023/11/16 06:50:04;;;;;;;3.85;1.58;;;3.90;99.90;;;;;;7385455;19;20015;-75
2023/11/16 06:52:32;;;;;;;7.40;1.75;;;3.80;99.90;;;;;;7384724;19;20021;-75
2023/11/16 06:55:00;;;;;;;9.70;1.75;;;3.80;99.90;;;;;;7384787;19;20021;-75
2023/11/16 06:57:26;;;;;;;5.05;2.17;;;3.80;99.90;;;;;;7386319;19;20043;-73
2023/11/16 06:59:53;;;;;;;6.00;1.60;;;3.80;99.90;;;;;;7386243;19;20690;-75
2023/11/16 07:02:21;;;;;;;6.50;1.65;;;3.80;99.90;;;;;;7383384;19;20014;-74
2023/11/16 07:04:48;;;;;;;5.50;1.55;;;3.80;99.90;;;;;;7384365;19;20026;-75
2023/11/16 07:07:18;;;;;;;3.08;1.58;;;3.80;99.90;;;;;;7386662;19;20406;-75
2023/11/16 07:09:46;;;;;;;4.75;1.45;;;3.80;99.90;;;;;;7386140;19;20022;-75
2023/11/16 07:12:20;;;;;;;6.38;1.80;;;3.70;99.90;;;;;;7380425;19;20018;-75
2023/11/16 07:14:48;;;;;;;5.07;1.65;;;3.70;99.90;;;;;;7383714;19;20056;-74
2023/11/16 07:17:14;;;;;;;4.88;1.70;;;3.70;99.90;;;;;;7387516;19;20048;-73
2023/11/16 07:19:44;;;;;;;4.22;1.48;;;3.70;99.90;;;;;;7388854;19;20029;-71
2023/11/16 07:22:12;;;;;;;5.10;1.55;;;3.80;99.90;;;;;;7392067;19;20862;-73
2023/11/16 07:24:39;;;;;;;5.15;1.80;;;3.70;99.90;;;;;;7393407;19;20014;-72
2023/11/16 07:27:08;;;;;;;6.70;2.00;;;3.70;99.90;;;;;;7390517;19;20003;-72
2023/11/16 07:29:36;;;;;;;5.50;2.08;;;3.80;99.90;;;;;;7391283;19;20010;-72
2023/11/16 07:32:04;;;;;;;5.57;2.30;;;3.70;99.90;;;;;;7386498;19;20039;-74
2023/11/16 07:34:31;;;;;;;10.13;2.83;;;3.80;99.90;;;;;;7383620;19;20015;-73
2023/11/16 07:36:57;;;;;;;7.25;3.20;;;3.80;99.90;;;;;;7384104;19;20390;-74
2023/11/16 07:39:24;;;;;;;9.82;3.97;;;3.80;99.90;;;;;;7388227;19;20027;-73
2023/11/16 07:41:51;;;;;;;10.45;3.63;;;3.90;99.90;;;;;;7387125;19;20046;-73
2023/11/16 07:44:18;;;;;;;6.57;2.80;;;3.90;99.90;;;;;;7388559;19;20018;-73
2023/11/16 07:46:45;;;;;;;10.50;2.83;;;4.00;99.90;;;;;;7387707;19;20015;-73
2023/11/16 07:49:12;;;;;;;5.63;2.10;;;4.10;99.90;;;;;;7389576;19;20011;-75
2023/11/16 07:51:39;;;;;;;11.77;5.43;;;4.30;99.90;;;;;;7385261;19;20014;-73
2023/11/16 07:54:07;;;;;;;4.20;1.90;;;4.20;99.90;;;;;;7394763;19;20110;-73
2023/11/16 07:56:34;;;;;;;4.72;2.00;;;4.20;99.90;;;;;;7392232;19;20111;-74
2023/11/16 07:59:02;;;;;;;7.65;2.80;;;4.30;99.90;;;;;;7389849;19;20025;-71
2023/11/16 08:01:40;;;;;;;8.50;2.22;;;4.40;99.90;;;;;;7386932;19;20014;-75
2023/11/16 08:04:09;;;;;;;7.60;1.88;;;4.50;99.90;;;;;;7382563;19;20038;-75
2023/11/16 08:06:40;;;;;;;2.42;1.42;;;4.50;99.90;;;;;;7384538;19;20027;-74
2023/11/16 08:09:09;;;;;;;6.13;1.30;;;4.50;99.90;;;;;;7385773;19;20010;-75
2023/11/16 08:11:36;;;;;;;3.15;1.17;;;4.50;99.90;;;;;;7382912;19;20097;-78
2023/11/16 08:14:06;;;;;;;3.35;1.30;;;4.60;99.90;;;;;;7388393;19;20023;-77
2023/11/16 08:20:29;;;;;;;6.70;1.30;;;4.60;99.90;;;;;;7401143;19;20434;-74
2023/11/16 08:26:42;;;;;;;5.10;1.50;;;5.50;99.90;;;;;;7381293;19;20035;-74
2023/11/16 08:33:05;;;;;;;4.45;1.17;;;7.40;99.90;;;;;;7406011;19;20001;-73
2023/11/16 08:40:04;;;;;;;4.03;1.40;;;7.50;99.90;;;;;;7404302;19;19998;-74
2023/11/16 08:42:41;;;;;;;5.80;1.40;;;7.30;99.90;;;;;;7399916;19;20375;-74
2023/11/16 08:45:18;;;;;;;10.23;2.47;;;7.30;99.90;;;;;;7383715;19;20178;-72
2023/11/16 08:48:03;;;;;;;5.78;1.58;;;7.70;99.90;;;;;;7397966;19;20119;-72
2023/11/16 08:50:44;;;;;;;4.95;1.27;;;8.00;99.90;;;;;;7397898;19;20035;-74
2023/11/16 08:57:05;;;;;;;3.20;1.38;;;8.70;99.90;;;;;;7398903;19;20003;-73
2023/11/16 09:07:41;;;;;;;4.03;1.13;;;8.10;99.90;;;;;;7398614;19;20006;-72
2023/11/16 09:14:04;;;;;;;5.53;1.48;;;7.80;99.90;;;;;;7398649;19;19999;-73
2023/11/16 09:20:25;;;;;;;10.70;1.40;;;9.90;99.90;;;;;;7398240;19;20006;-74
2023/11/16 09:26:48;;;;;;;3.50;1.40;;;12.40;99.90;;;;;;7398350;19;19993;-74
2023/11/16 09:33:10;;;;;;;4.90;1.55;;;13.70;99.90;;;;;;7397890;19;20002;-73
2023/11/16 09:39:30;;;;;;;6.47;1.83;;;14.40;99.90;;;;;;7397409;19;20005;-73
2023/11/16 09:45:53;;;;;;;3.60;1.30;;;15.40;99.90;;;;;;7402239;19;20003;-73
2023/11/16 09:52:14;;;;;;;4.38;1.40;;;16.10;99.90;;;;;;7396058;19;20023;-73
2023/11/16 09:58:39;;;;;;;4.20;1.48;;;16.10;99.90;;;;;;7397270;19;20314;-74
2023/11/16 10:09:43;;;;;;;6.38;1.40;;;14.60;99.90;;;;;;7396584;19;20466;-71
2023/11/16 10:12:11;;;;;;;5.55;1.42;;;14.20;99.90;;;;;;7385663;19;20018;-76
2023/11/16 10:14:51;;;;;;;4.97;1.40;;;14.30;99.90;;;;;;7384663;19;20518;-70
2023/11/16 10:17:25;;;;;;;7.22;1.20;;;14.20;99.90;;;;;;7395847;19;20010;-72
2023/11/16 10:24:08;;;;;;;5.82;1.40;;;14.00;99.90;;;;;;7401018;19;20012;-73
2023/11/16 10:30:29;;;;;;;5.65;1.55;;;13.50;99.90;;;;;;7395760;19;19991;-72
2023/11/16 10:36:55;;;;;;;6.93;1.42;;;13.10;99.90;;;;;;7400460;19;20014;-73
2023/11/16 10:39:25;;;;;;;4.57;1.48;;;13.10;99.90;;;;;;7393961;19;20006;-71
2023/11/16 10:41:53;;;;;;;5.22;1.50;;;13.20;99.90;;;;;;7395797;19;20015;-71
2023/11/16 10:48:16;;;;;;;8.45;1.77;;;13.00;99.90;;;;;;7400189;19;19998;-73
2023/11/16 10:51:01;;;;;;;5.40;1.52;;;13.00;99.90;;;;;;7399103;19;20347;-73
2023/11/16 10:53:37;;;;;;;5.45;1.30;;;13.00;99.90;;;;;;7402635;19;20011;-71
2023/11/16 10:56:09;;;;;;;4.55;1.48;;;12.80;99.90;;;;;;7402480;19;20101;-72
2023/11/16 10:58:47;;;;;;;5.68;1.80;;;12.60;99.90;;;;;;7405402;19;20016;-72
2023/11/16 11:01:17;;;;;;;7.80;2.20;;;12.50;99.90;;;;;;7402281;19;20330;-71
2023/11/16 11:03:45;;;;;;;6.72;1.50;;;12.30;99.90;;;;;;7389740;19;20473;-73
2023/11/16 11:06:47;;;;;;;6.47;1.90;;;12.10;99.90;;;;;;7400700;19;20006;-73
2023/11/16 11:09:15;;;;;;;7.82;2.03;;;12.00;99.90;;;;;;7397229;19;20040;-67
2023/11/16 11:11:44;;;;;;;5.53;1.50;;;11.80;99.90;;;;;;7397198;19;20011;-68
2023/11/16 11:14:13;;;;;;;6.47;2.10;;;11.60;99.90;;;;;;7401895;19;20362;-68
2023/11/16 11:16:40;;;;;;;7.03;1.88;;;11.40;99.90;;;;;;7403220;19;20015;-69
2023/11/16 11:19:09;;;;;;;3.90;1.70;;;11.30;99.90;;;;;;7385762;19;20497;-68
2023/11/16 11:21:49;;;;;;;6.25;1.75;;;11.20;99.90;;;;;;7394382;19;20011;-68
2023/11/16 11:24:17;;;;;;;6.22;1.45;;;11.10;99.90;;;;;;7403412;19;20416;-68
2023/11/16 11:26:50;;;;;;;4.68;1.70;;;11.00;99.90;;;;;;7399197;19;20043;-72
2023/11/16 11:29:23;;;;;;;6.18;1.65;;;11.00;99.90;;;;;;7383783;19;20817;-72
2023/11/16 11:32:11;;;;;;;4.53;1.50;;;10.90;99.90;;;;;;7381738;19;20017;-67
2023/11/16 11:34:49;;;;;;;6.18;1.70;;;10.90;99.90;;;;;;7402827;19;20494;-68
2023/11/16 11:37:15;;;;;;;5.25;1.83;;;10.80;99.90;;;;;;7401947;19;20010;-68
2023/11/16 11:39:45;;;;;;;6.80;1.60;;;10.90;99.90;;;;;;7399753;19;20011;-67
2023/11/16 11:42:13;;;;;;;5.43;1.83;;;11.00;99.90;;;;;;7401841;19;20034;-68
2023/11/16 11:44:51;;;;;;;6.93;1.80;;;11.10;99.90;;;;;;7395493;19;20026;-67
2023/11/16 11:47:21;;;;;;;6.85;1.77;;;11.20;99.90;;;;;;7394450;19;20010;-68
2023/11/16 11:49:56;;;;;;;4.60;1.83;;;11.40;99.90;;;;;;7397041;19;20016;-68
2023/11/16 11:52:24;;;;;;;5.43;1.70;;;11.60;99.90;;;;;;7396405;19;20774;-69
2023/11/16 11:54:51;;;;;;;5.78;1.90;;;11.70;99.90;;;;;;7397697;19;20046;-67
2023/11/16 11:57:18;;;;;;;7.03;2.05;;;11.70;99.90;;;;;;7387410;19;20440;-72
2023/11/16 11:59:45;;;;;;;8.63;1.75;;;11.80;99.90;;;;;;7376182;19;20363;-72
2023/11/16 12:02:12;;;;;;;5.78;1.70;;;11.90;99.90;;;;;;7374891;19;20006;-72
2023/11/16 12:04:39;;;;;;;4.07;1.77;;;11.90;99.90;;;;;;7381376;19;20022;-70
2023/11/16 12:07:09;;;;;;;6.05;1.80;;;12.00;99.90;;;;;;7379107;19;20019;-72
2023/11/16 12:09:40;;;;;;;7.82;2.30;;;12.20;99.90;;;;;;7389887;19;20458;-67
2023/11/16 12:12:10;;;;;;;6.55;2.10;;;12.20;99.90;;;;;;7393723;19;20062;-67
2023/11/16 12:14:46;;;;;;;5.57;2.20;;;12.20;99.90;;;;;;7394865;19;20498;-68
2023/11/16 12:17:14;;;;;;;8.20;1.98;;;12.20;99.90;;;;;;7393829;19;20050;-67
2023/11/16 12:19:41;;;;;;;9.13;2.35;;;12.30;99.90;;;;;;7394758;19;20027;-68
2023/11/16 12:22:12;;;;;;;5.68;1.90;;;12.40;99.90;;;;;;7394146;19;20034;-68
2023/11/16 12:24:38;;;;;;;6.38;2.17;;;12.50;99.90;;;;;;7393825;19;20048;-68
2023/11/16 12:27:14;;;;;;;7.65;1.92;;;12.70;99.90;;;;;;7394364;19;20481;-68
2023/11/16 12:29:54;;;;;;;7.30;1.90;;;12.70;99.90;;;;;;7387700;19;20025;-66
2023/11/16 12:32:21;;;;;;;4.60;1.48;;;12.70;99.90;;;;;;7383372;19;20840;-71
2023/11/16 12:34:49;;;;;;;5.85;1.80;;;12.50;99.90;;;;;;7377810;19;20030;-71
2023/11/16 12:37:16;;;;;;;5.68;1.65;;;12.40;99.90;;;;;;7376706;19;20064;-71
2023/11/16 12:39:42;;;;;;;5.72;1.70;;;12.60;99.90;;;;;;7374618;19;20082;-69
2023/11/16 12:42:14;;;;;;;3.35;1.55;;;12.30;99.90;;;;;;7375549;19;20014;-70
2023/11/16 12:44:42;;;;;;;5.43;1.65;;;12.30;99.90;;;;;;7385298;19;20056;-67
2023/11/16 12:47:13;;;;;;;7.17;1.67;;;12.30;99.90;;;;;;7395325;19;20052;-67
2023/11/16 12:49:39;;;;;;;6.30;1.48;;;12.20;99.90;;;;;;7394077;19;20270;-67
2023/11/16 12:52:08;;;;;;;5.88;1.70;;;12.30;99.90;;;;;;7393209;19;20088;-67
2023/11/16 12:54:36;;;;;;;3.42;1.48;;;12.40;99.90;;;;;;7393649;19;20013;-67
2023/11/16 12:57:06;;;;;;;6.90;1.50;;;12.40;99.90;;;;;;7393916;19;20006;-67
2023/11/16 12:59:33;;;;;;;5.30;1.40;;;12.40;99.90;;;;;;7394337;19;20026;-66
2023/11/16 13:02:19;;;;;;;3.95;1.52;;;12.40;99.90;;;;;;7391678;19;20046;-68
2023/11/16 13:04:50;;;;;;;2.97;1.45;;;12.50;99.90;;;;;;7382219;19;20029;-72
2023/11/16 13:07:16;;;;;;;6.00;1.50;;;12.50;99.90;;;;;;7389757;19;20117;-68
2023/11/16 13:09:42;;;;;;;9.73;2.50;;;12.60;99.90;;;;;;7379632;19;20382;-71
2023/11/16 13:12:09;;;;;;;7.47;2.55;;;12.60;99.90;;;;;;7373099;19;20022;-70
2023/11/16 13:14:35;;;;;;;7.32;1.98;;;12.70;99.90;;;;;;7375357;19;20390;-71
2023/11/16 13:17:03;;;;;;;4.60;1.65;;;12.90;99.90;;;;;;7375293;19;20544;-72
2023/11/16 13:19:29;;;;;;;4.32;1.55;;;13.40;99.90;;;;;;7378350;19;20722;-72
2023/11/16 13:21:55;;;;;;;5.07;1.40;;;13.90;99.90;;;;;;7390029;19;20031;-67
2023/11/16 13:24:22;;;;;;;5.50;2.13;;;14.10;99.90;;;;;;7388969;19;20091;-67
2023/11/16 13:26:48;;;;;;;5.88;1.73;;;14.60;99.90;;;;;;7389899;19;20406;-67
2023/11/16 13:29:16;;;;;;;6.18;1.95;;;14.90;99.90;;;;;;7390065;19;20370;-67
2023/11/16 13:31:43;;;;;;;6.82;1.60;;;14.90;99.90;;;;;;7392072;19;20018;-67
2023/11/16 13:34:10;;;;;;;7.05;2.10;;;14.80;99.90;;;;;;7380868;19;20018;-60
2023/11/16 13:36:38;;;;;;;10.48;3.05;;;14.50;99.90;;;;;;7372683;19;20014;-59
2023/11/16 13:39:07;;;;;;;9.55;4.80;;;14.20;99.90;;;;;;7371423;19;20030;-60
2023/11/16 13:41:34;;;;;;;8.35;2.30;;;13.80;99.90;;;;;;7367620;19;20015;-59
2023/11/16 13:44:00;;;;;;;4.32;1.60;;;13.30;99.90;;;;;;7372762;19;20019;-60
2023/11/16 13:46:26;;;;;;;5.35;1.35;;;13.10;99.90;;;;;;7373948;19;20902;-61
2023/11/16 13:48:52;;;;;;;3.38;1.50;;;12.90;99.90;;;;;;7372838;19;20500;-60
2023/11/16 13:51:19;;;;;;;4.75;1.55;;;12.60;99.90;;;;;;7370059;19;20052;-61
2023/11/16 13:53:45;;;;;;;4.45;1.30;;;12.30;99.90;;;;;;7370340;19;20006;-61
2023/11/16 13:56:12;;;;;;;5.07;1.50;;;12.20;99.90;;;;;;7370451;19;20029;-60
2023/11/16 13:58:39;;;;;;;5.85;2.13;;;11.90;99.90;;;;;;7368352;19;20015;-60
2023/11/16 14:01:08;;;;;;;3.15;1.10;;;11.80;99.90;;;;;;7367972;19;20018;-60
2023/11/16 14:03:34;;;;;;;5.85;1.77;;;11.50;99.90;;;;;;7367304;19;20018;-60
2023/11/16 14:06:03;;;;;;;3.55;1.00;;;11.30;99.90;;;;;;7366839;19;20078;-60
2023/11/16 14:08:30;;;;;;;3.33;1.08;;;11.10;99.90;;;;;;7370056;19;20018;-60
2023/11/16 14:10:58;;;;;;;4.45;1.40;;;10.80;99.90;;;;;;7367521;19;20727;-60
2023/11/16 14:13:26;;;;;;;2.65;1.15;;;10.60;99.90;;;;;;7370604;19;20396;-60
2023/11/16 14:15:52;;;;;;;5.20;1.23;;;10.40;99.90;;;;;;7372074;19;20823;-60
2023/11/16 14:18:19;;;;;;;5.35;1.45;;;10.30;99.90;;;;;;7367192;19;20018;-60
2023/11/16 14:20:47;;;;;;;7.28;1.45;;;10.10;99.90;;;;;;7373032;19;20029;-60
2023/11/16 14:23:13;;;;;;;4.25;1.30;;;10.00;99.90;;;;;;7368849;19;20575;-60
2023/11/16 14:25:39;;;;;;;5.85;1.90;;;9.90;99.90;;;;;;7368556;19;21910;-59
2023/11/16 14:28:06;;;;;;;4.28;1.50;;;9.90;99.90;;;;;;7368610;19;20022;-58
2023/11/16 14:30:32;;;;;;;4.70;1.50;;;9.80;99.90;;;;;;7369931;19;20018;-58
2023/11/16 14:32:59;;;;;;;5.00;1.48;;;9.70;99.90;;;;;;7362521;19;20023;-58
2023/11/16 14:35:26;;;;;;;5.80;1.40;;;9.60;99.90;;;;;;7368789;19;20362;-58
2023/11/16 14:37:53;;;;;;;7.32;1.90;;;9.50;99.90;;;;;;7366804;19;20522;-59
2023/11/16 14:40:21;;;;;;;4.30;1.45;;;9.30;99.90;;;;;;7370904;19;20015;-58
2023/11/16 14:42:47;;;;;;;4.43;1.67;;;9.30;99.90;;;;;;7368296;19;20010;-59
2023/11/16 14:45:14;;;;;;;4.93;2.10;;;9.10;99.90;;;;;;7365961;19;20011;-58
2023/11/16 14:47:41;;;;;;;5.88;2.10;;;9.00;99.90;;;;;;7368100;19;20025;-59
2023/11/16 14:50:14;;;;;;;6.28;2.00;;;8.90;99.90;;;;;;7367414;19;20019;-58
2023/11/16 14:52:41;;;;;;;4.40;2.30;;;8.80;99.90;;;;;;7363635;19;20376;-58
2023/11/16 14:55:08;;;;;;;6.00;2.50;;;8.70;99.90;;;;;;7369293;19;20063;-62
2023/11/16 14:57:37;;;;;;;5.40;2.30;;;8.60;99.90;;;;;;7369940;19;20657;-61
2023/11/16 15:00:05;;;;;;;6.13;3.35;;;8.50;99.90;;;;;;7373964;19;20038;-59
2023/11/16 15:02:31;;;;;;;8.38;2.88;;;8.40;99.90;;;;;;7370679;19;20026;-58
2023/11/16 15:04:58;;;;;;;6.38;2.80;;;8.30;99.90;;;;;;7370750;19;20044;-58
2023/11/16 15:07:24;;;;;;;5.90;2.55;;;8.20;99.90;;;;;;7370262;19;20018;-59
2023/11/16 15:09:51;;;;;;;5.13;2.72;;;8.10;99.90;;;;;;7368600;19;20018;-58
2023/11/16 15:12:17;;;;;;;9.65;2.50;;;8.00;99.90;;;;;;7367633;19;20026;-59
2023/11/16 15:14:44;;;;;;;4.93;2.42;;;8.00;99.90;;;;;;7366244;19;20035;-58
2023/11/16 15:17:10;;;;;;;5.03;2.53;;;7.90;99.90;;;;;;7366844;19;20652;-58
2023/11/16 15:19:37;;;;;;;6.85;2.63;;;7.70;99.90;;;;;;7368609;19;20061;-58
2023/11/16 15:22:03;;;;;;;6.95;3.35;;;7.70;99.90;;;;;;7368372;19;20026;-58
2023/11/16 15:24:30;;;;;;;8.48;2.85;;;7.60;99.90;;;;;;7368513;19;20026;-58
2023/11/16 15:26:58;;;;;;;5.90;2.70;;;7.50;99.90;;;;;;7366700;19;20086;-58
2023/11/16 15:29:25;;;;;;;5.55;2.53;;;7.50;99.90;;;;;;7367859;19;20339;-58
2023/11/16 15:31:51;;;;;;;6.30;3.30;;;7.40;99.90;;;;;;7370063;19;20021;-59
2023/11/16 15:34:18;;;;;;;6.57;3.63;;;7.30;99.90;;;;;;7366172;19;20011;-58
2023/11/16 15:36:44;;;;;;;7.38;4.28;;;7.20;99.90;;;;;;7372503;19;20053;-59
2023/11/16 15:39:15;;;;;;;9.77;5.60;;;7.10;99.90;;;;;;7373732;19;20398;-58
2023/11/16 15:41:43;;;;;;;;;;;7.00;99.90;;;;;;7373975;19;20073;-59
2023/11/16 15:44:10;;;;;;;9.07;6.38;;;6.90;99.90;;;;;;7375998;19;19971;-58
2023/11/16 15:46:36;;;;;;;11.93;6.68;;;6.90;99.90;;;;;;7375669;19;20014;-58